createdAt,value
2023-02-04T00:00:48.504Z,86.46
2023-02-04T00:03:33.214Z,86.59
2023-02-04T00:06:05.139Z,86.66
2023-02-04T00:08:37.569Z,86.68
2023-02-04T00:11:09.499Z,86.51
2023-02-04T00:13:41.215Z,86.43
2023-02-04T00:16:11.382Z,86.35
2023-02-04T00:18:43.074Z,86.32
2023-02-04T00:21:13.237Z,86.27
2023-02-04T00:23:44.924Z,86.10
2023-02-04T00:26:15.062Z,86.28
2023-02-04T00:28:47.092Z,86.18
2023-02-04T00:31:18.863Z,86.29
2023-02-04T00:33:50.604Z,86.41
2023-02-04T00:36:20.754Z,86.30
2023-02-04T00:38:52.441Z,86.12
2023-02-04T00:41:22.654Z,86.34
2023-02-04T00:43:54.361Z,86.08
2023-02-04T00:46:24.481Z,86.06
2023-02-04T00:48:56.084Z,85.98
2023-02-04T00:51:26.276Z,86.15
2023-02-04T00:53:57.941Z,85.90
2023-02-04T00:56:30.675Z,86.12
2023-02-04T00:59:02.371Z,86.24
2023-02-04T01:01:32.624Z,86.23
2023-02-04T01:04:04.400Z,85.98
2023-02-04T01:06:36.102Z,86.29
2023-02-04T01:09:06.540Z,86.34
2023-02-04T01:11:38.638Z,86.27
2023-02-04T01:14:10.496Z,86.35
2023-02-04T01:16:45.234Z,86.52
2023-02-04T01:19:17.305Z,86.41
2023-02-04T01:21:49.051Z,86.54
2023-02-04T01:24:20.721Z,86.51
2023-02-04T01:27:11.182Z,86.41
2023-02-04T01:29:42.832Z,86.44
2023-02-04T01:32:15.644Z,86.43
2023-02-04T01:34:45.789Z,86.36
2023-02-04T01:37:17.920Z,86.17
2023-02-04T01:39:49.806Z,86.12
2023-02-04T01:42:20.064Z,86.01
2023-02-04T01:44:52.829Z,85.90
2023-02-04T01:47:26.741Z,85.75
2023-02-04T01:49:58.471Z,85.73
2023-02-04T01:52:32.376Z,85.67
2023-02-04T01:55:04.230Z,85.77
2023-02-04T01:57:37.562Z,85.80
2023-02-04T02:00:17.102Z,85.85
2023-02-04T02:02:51.382Z,85.92
2023-02-04T02:05:28.187Z,85.93
2023-02-04T02:08:02.240Z,86.00
2023-02-04T02:10:35.421Z,85.97
2023-02-04T02:13:09.432Z,86.00
2023-02-04T02:15:43.902Z,86.03
2023-02-04T02:18:16.278Z,85.97
2023-02-04T02:20:48.222Z,85.92
2023-02-04T02:23:27.976Z,85.84
2023-02-04T02:25:59.737Z,85.84
2023-02-04T02:28:31.463Z,85.81
2023-02-04T02:31:01.783Z,85.75
2023-02-04T02:33:34.658Z,85.76
2023-02-04T02:36:07.461Z,85.62
2023-02-04T02:38:40.070Z,85.50
2023-02-04T02:41:12.018Z,85.44
2023-02-04T02:43:43.765Z,85.51
2023-02-04T02:46:14.029Z,85.54
2023-02-04T02:48:45.882Z,85.45
2023-02-04T02:51:17.596Z,85.44
2023-02-04T02:53:48.913Z,85.43
2023-02-04T02:56:21.727Z,85.34
2023-02-04T02:58:53.605Z,85.44
2023-02-04T03:01:25.356Z,85.47
2023-02-04T03:03:57.070Z,85.54
2023-02-04T03:06:27.728Z,85.53
2023-02-04T03:08:59.809Z,85.47
2023-02-04T03:11:32.610Z,85.59
2023-02-04T03:14:05.150Z,85.62
2023-02-04T03:16:38.346Z,85.68
2023-02-04T03:19:11.105Z,85.69
2023-02-04T03:21:43.673Z,85.74
2023-02-04T03:24:15.484Z,85.76
2023-02-04T03:26:47.454Z,85.88
2023-02-04T03:29:19.603Z,85.86
2023-02-04T03:31:51.431Z,85.88
2023-02-04T03:34:23.234Z,85.90
2023-02-04T03:36:54.893Z,85.57
2023-02-04T03:39:25.055Z,85.50
2023-02-04T03:41:56.698Z,85.19
2023-02-04T03:44:27.033Z,84.83
2023-02-04T03:47:00.089Z,84.55
2023-02-04T03:49:32.429Z,84.41
2023-02-04T03:52:04.750Z,84.30
2023-02-04T03:54:36.646Z,84.01
2023-02-04T03:57:06.838Z,83.92
2023-02-04T03:59:38.557Z,83.44
2023-02-04T04:02:08.892Z,83.22
2023-02-04T04:04:40.496Z,83.22
2023-02-04T04:07:12.595Z,83.06
2023-02-04T04:09:44.261Z,83.03
2023-02-04T04:12:14.371Z,83.30
2023-02-04T04:14:46.020Z,83.31
2023-02-04T04:17:16.164Z,83.23
2023-02-04T04:19:49.526Z,83.23
2023-02-04T04:22:21.365Z,83.25
2023-02-04T04:24:53.340Z,83.30
2023-02-04T04:27:26.002Z,83.10
2023-02-04T04:29:57.878Z,82.67
2023-02-04T04:32:29.590Z,82.69
2023-02-04T04:34:59.742Z,82.84
2023-02-04T04:37:31.441Z,82.90
2023-02-04T04:40:03.339Z,83.27
2023-02-04T04:42:35.061Z,83.56
2023-02-04T04:45:06.632Z,83.70
2023-02-04T04:47:38.323Z,83.59
2023-02-04T04:50:09.027Z,83.49
2023-02-04T04:52:40.688Z,83.49
2023-02-04T04:55:11.170Z,83.48
2023-02-04T04:57:42.787Z,83.41
2023-02-04T05:00:16.571Z,83.28
2023-02-04T05:02:48.232Z,83.29
2023-02-04T05:05:18.405Z,82.99
2023-02-04T05:07:50.105Z,82.80
2023-02-04T05:10:20.854Z,82.86
2023-02-04T05:12:52.469Z,82.91
2023-02-04T05:15:22.614Z,82.81
2023-02-04T05:17:54.244Z,82.54
2023-02-04T05:20:24.330Z,82.17
2023-02-04T05:22:56.539Z,81.84
2023-02-04T05:25:28.552Z,81.60
2023-02-04T05:28:00.238Z,81.45
2023-02-04T05:30:31.031Z,81.62
2023-02-04T05:33:02.861Z,81.84
2023-02-04T05:35:32.947Z,82.03
2023-02-04T05:38:04.633Z,82.06
2023-02-04T05:40:34.876Z,82.05
2023-02-04T05:43:06.605Z,82.00
2023-02-04T05:45:36.727Z,82.08
2023-02-04T05:48:08.642Z,81.91
2023-02-04T05:50:40.290Z,81.80
2023-02-04T05:53:14.643Z,81.51
2023-02-04T05:55:44.751Z,81.25
2023-02-04T05:58:16.360Z,80.98
2023-02-04T06:00:46.493Z,81.02
2023-02-04T06:03:19.563Z,81.06
2023-02-04T06:05:51.281Z,81.05
2023-02-04T06:08:21.761Z,81.01
2023-02-04T06:10:53.382Z,80.96
2023-02-04T06:13:23.525Z,80.83
2023-02-04T06:15:55.129Z,80.67
2023-02-04T06:18:25.294Z,80.43
2023-02-04T06:20:56.891Z,80.31
2023-02-04T06:23:27.062Z,80.38
2023-02-04T06:25:58.727Z,80.37
2023-02-04T06:28:28.816Z,80.29
2023-02-04T06:31:00.597Z,80.02
2023-02-04T06:33:32.685Z,79.77
2023-02-04T06:36:04.370Z,79.71
2023-02-04T06:38:34.470Z,79.38
2023-02-04T06:41:06.362Z,79.35
2023-02-04T06:43:38.003Z,79.46
2023-02-04T06:46:08.171Z,79.33
2023-02-04T06:48:39.874Z,79.13
2023-02-04T06:51:09.978Z,79.06
2023-02-04T06:53:44.076Z,79.20
2023-02-04T06:56:15.712Z,79.44
2023-02-04T06:58:45.829Z,79.63
2023-02-04T07:01:17.479Z,79.64
2023-02-04T07:03:49.292Z,79.64
2023-02-04T07:06:19.448Z,79.51
2023-02-04T07:08:51.122Z,79.17
2023-02-04T07:11:21.279Z,79.08
2023-02-04T07:13:52.951Z,79.09
2023-02-04T07:16:23.030Z,78.99
2023-02-04T07:18:54.756Z,79.04
2023-02-04T07:21:24.920Z,78.68
2023-02-04T07:23:56.596Z,78.78
2023-02-04T07:26:26.734Z,78.88
2023-02-04T07:28:58.328Z,78.96
2023-02-04T07:31:28.636Z,79.08
2023-02-04T07:34:00.377Z,79.01
2023-02-04T07:36:30.568Z,78.89
2023-02-04T07:39:02.196Z,78.75
2023-02-04T07:41:34.074Z,78.66
2023-02-04T07:44:04.384Z,78.73
2023-02-04T07:46:36.118Z,78.98
2023-02-04T07:49:06.256Z,79.08
2023-02-04T07:51:37.887Z,79.01
2023-02-04T07:54:07.975Z,78.67
2023-02-04T07:56:39.641Z,78.26
2023-02-04T07:59:09.762Z,77.76
2023-02-04T08:01:41.450Z,77.76
2023-02-04T08:04:11.546Z,77.66
2023-02-04T08:06:43.212Z,77.67
2023-02-04T08:09:13.280Z,77.63
2023-02-04T08:11:44.861Z,77.76
2023-02-04T08:14:16.504Z,77.29
2023-02-04T08:16:46.620Z,77.04
2023-02-04T08:19:21.426Z,77.07
2023-02-04T08:21:53.809Z,76.88
2023-02-04T08:24:25.449Z,76.36
2023-02-04T08:26:55.610Z,76.62
2023-02-04T08:29:27.376Z,76.63
2023-02-04T08:31:59.174Z,76.12
2023-02-04T08:34:30.902Z,76.06
2023-02-04T08:37:01.063Z,75.93
2023-02-04T08:39:33.345Z,75.86
2023-02-04T08:42:05.233Z,75.63
2023-02-04T08:44:35.383Z,75.43
2023-02-04T08:47:07.162Z,75.66
2023-02-04T08:49:38.981Z,75.46
2023-02-04T08:52:10.704Z,75.84
2023-02-04T08:54:40.822Z,75.88
2023-02-04T08:57:12.567Z,76.09
2023-02-04T08:59:45.799Z,76.07
2023-02-04T09:02:17.580Z,76.11
2023-02-04T09:04:49.355Z,76.25
2023-02-04T09:07:19.486Z,76.30
2023-02-04T09:09:51.109Z,76.47
2023-02-04T09:12:21.255Z,76.11
2023-02-04T09:14:52.906Z,76.04
2023-02-04T09:17:23.024Z,76.01
2023-02-04T09:19:54.624Z,76.12
2023-02-04T09:22:24.752Z,76.04
2023-02-04T09:24:56.378Z,75.87
2023-02-04T09:27:26.534Z,75.71
2023-02-04T09:29:58.198Z,75.84
2023-02-04T09:32:28.354Z,75.00
2023-02-04T09:35:00.063Z,74.63
2023-02-04T09:37:30.256Z,74.03
2023-02-04T09:40:04.878Z,74.25
2023-02-04T09:42:36.697Z,73.72
2023-02-04T09:45:11.074Z,73.81
2023-02-04T09:47:42.706Z,73.28
2023-02-04T09:50:15.913Z,73.24
2023-02-04T09:52:51.058Z,72.67
2023-02-04T09:55:26.083Z,71.88
2023-02-04T09:57:57.812Z,72.04
2023-02-04T10:00:29.326Z,71.96
2023-02-04T10:03:03.905Z,71.69
2023-02-04T10:05:37.170Z,71.50
2023-02-04T10:08:08.925Z,71.71
2023-02-04T10:10:40.245Z,71.93
2023-02-04T10:13:19.766Z,71.95
2023-02-04T10:15:53.162Z,71.14
2023-02-04T10:18:31.226Z,69.71
2023-02-04T10:21:14.012Z,69.84
2023-02-04T10:23:48.419Z,70.27
2023-02-04T10:26:21.740Z,69.63
2023-02-04T10:28:58.628Z,68.90
2023-02-04T10:31:33.373Z,68.48
2023-02-04T10:34:12.703Z,68.65
2023-02-04T10:36:46.062Z,69.05
2023-02-04T10:39:21.130Z,69.16
2023-02-04T10:41:55.016Z,69.56
2023-02-04T10:44:31.312Z,69.82
2023-02-04T10:47:04.642Z,70.02
2023-02-04T10:49:36.629Z,69.95
2023-02-04T10:52:18.854Z,69.00
2023-02-04T10:54:51.022Z,68.91
2023-02-04T10:57:25.340Z,68.94
2023-02-04T10:59:59.870Z,67.97
2023-02-04T11:02:44.760Z,67.97
2023-02-04T11:05:18.756Z,68.36
2023-02-04T11:07:51.493Z,67.65
2023-02-04T11:10:25.533Z,67.32
2023-02-04T11:13:05.660Z,67.68
2023-02-04T11:15:50.428Z,67.79
2023-02-04T11:18:32.214Z,67.62
2023-02-04T11:21:14.696Z,67.73
2023-02-04T11:23:46.377Z,67.80
2023-02-04T11:26:22.677Z,67.38
2023-02-04T11:29:09.752Z,66.92
2023-02-04T11:32:00.385Z,66.27
2023-02-04T11:34:46.556Z,66.01
2023-02-04T11:37:41.589Z,66.14
2023-02-04T11:40:25.339Z,66.07
2023-02-04T11:43:10.163Z,65.76
2023-02-04T11:45:42.280Z,65.91
2023-02-04T11:48:17.130Z,65.82
2023-02-04T11:50:59.084Z,66.21
2023-02-04T11:53:34.098Z,66.50
2023-02-04T11:56:06.080Z,66.21
2023-02-04T11:58:42.415Z,65.50
2023-02-04T12:01:21.358Z,65.43
2023-02-04T12:03:59.739Z,65.45
2023-02-04T12:06:33.795Z,65.01
2023-02-04T12:09:09.503Z,64.81
2023-02-04T12:11:41.152Z,64.85
2023-02-04T12:14:12.834Z,65.12
2023-02-04T12:16:47.680Z,64.90
2023-02-04T12:19:22.242Z,65.25
2023-02-04T12:21:54.770Z,65.54
2023-02-04T12:24:35.305Z,65.33
2023-02-04T12:27:07.064Z,65.29
2023-02-04T12:29:37.209Z,65.64
2023-02-04T12:32:09.070Z,65.99
2023-02-04T12:34:40.789Z,65.37
2023-02-04T12:37:10.986Z,65.28
2023-02-04T12:39:42.620Z,65.61
2023-02-04T12:42:12.787Z,65.59
2023-02-04T12:44:44.527Z,65.94
2023-02-04T12:47:16.575Z,65.64
2023-02-04T12:49:46.738Z,65.32
2023-02-04T12:52:18.446Z,65.72
2023-02-04T12:54:49.292Z,65.40
2023-02-04T12:57:21.914Z,65.64
2023-02-04T12:59:53.577Z,65.78
2023-02-04T13:02:23.783Z,66.09
2023-02-04T13:08:19.986Z,65.86
2023-02-04T13:10:51.940Z,65.82
2023-02-04T13:13:23.077Z,65.86
2023-02-04T13:15:54.741Z,65.93
2023-02-04T13:18:24.935Z,65.62
2023-02-04T13:20:56.611Z,65.39
2023-02-04T13:23:27.405Z,65.54
2023-02-04T13:25:59.080Z,66.00
2023-02-04T13:28:29.264Z,66.07
2023-02-04T13:31:02.914Z,66.53
2023-02-04T13:33:35.868Z,66.96
2023-02-04T13:36:08.205Z,67.58
2023-02-04T13:38:39.812Z,67.94
2023-02-04T13:41:09.999Z,68.46
2023-02-04T13:43:41.996Z,69.34
2023-02-04T13:46:12.194Z,69.83
2023-02-04T13:48:44.307Z,69.53
2023-02-04T13:51:16.257Z,69.37
2023-02-04T13:53:48.028Z,69.53
2023-02-04T13:56:19.835Z,69.67
2023-02-04T13:58:51.696Z,69.69
2023-02-04T14:01:24.197Z,69.66
2023-02-04T14:03:56.127Z,69.37
2023-02-04T14:06:33.446Z,69.36
2023-02-04T14:09:05.603Z,69.40
2023-02-04T14:11:37.513Z,69.41
2023-02-04T14:14:09.880Z,69.31
2023-02-04T14:16:42.098Z,69.25
2023-02-04T14:19:15.011Z,69.21
2023-02-04T14:21:48.725Z,69.24
2023-02-04T14:24:20.642Z,69.11
2023-02-04T14:26:52.681Z,69.03
2023-02-04T14:29:24.518Z,69.06
2023-02-04T14:31:56.249Z,69.27
2023-02-04T14:34:26.427Z,69.35
2023-02-04T14:36:58.177Z,69.36
2023-02-04T14:39:29.918Z,69.47
2023-02-04T14:42:04.399Z,69.74
2023-02-04T14:44:36.078Z,70.00
2023-02-04T14:47:06.282Z,70.31
2023-02-04T14:49:38.079Z,70.48
2023-02-04T14:52:11.394Z,70.72
2023-02-04T14:54:43.448Z,70.91
2023-02-04T14:57:15.227Z,71.01
2023-02-04T14:59:46.916Z,71.15
2023-02-04T15:02:17.114Z,71.12
2023-02-04T15:04:49.101Z,71.09
2023-02-04T15:07:20.787Z,71.35
2023-02-04T15:09:52.824Z,71.40
2023-02-04T15:12:23.500Z,71.37
2023-02-04T15:14:55.257Z,71.51
2023-02-04T15:17:27.201Z,71.94
2023-02-04T15:19:59.025Z,72.21
2023-02-04T15:22:30.893Z,72.45
2023-02-04T15:25:02.610Z,72.43
2023-02-04T15:27:33.220Z,72.47
2023-02-04T15:30:05.176Z,72.30
2023-02-04T15:32:37.360Z,72.42
2023-02-04T15:35:09.922Z,72.48
2023-02-04T15:37:41.699Z,72.53
2023-02-04T15:40:14.326Z,72.61
2023-02-04T15:42:46.074Z,72.76
2023-02-04T15:45:17.945Z,72.95
2023-02-04T15:47:50.438Z,73.20
2023-02-04T15:50:22.583Z,73.33
2023-02-04T15:52:54.274Z,73.38
2023-02-04T15:55:24.443Z,73.40
2023-02-04T15:57:56.186Z,73.22
2023-02-04T16:00:26.308Z,73.47
2023-02-04T16:02:57.991Z,73.30
2023-02-04T16:05:30.194Z,73.46
2023-02-04T16:08:02.197Z,73.43
2023-02-04T16:10:34.167Z,73.48
2023-02-04T16:13:06.000Z,73.60
2023-02-04T16:15:36.672Z,73.67
2023-02-04T16:18:08.616Z,73.55
2023-02-04T16:20:40.352Z,74.01
2023-02-04T16:23:10.575Z,74.05
2023-02-04T16:25:42.275Z,73.79
2023-02-04T16:28:12.385Z,74.21
2023-02-04T16:30:44.432Z,73.92
2023-02-04T16:33:16.227Z,74.47
2023-02-04T16:36:02.644Z,74.71
2023-02-04T16:38:36.568Z,74.83
2023-02-04T16:41:08.542Z,75.12
2023-02-04T16:43:40.278Z,75.24
2023-02-04T16:46:15.149Z,75.28
2023-02-04T16:48:46.843Z,75.40
2023-02-04T16:51:17.866Z,75.37
2023-02-04T16:53:50.488Z,75.32
2023-02-04T16:56:22.204Z,75.56
2023-02-04T16:58:52.459Z,75.61
2023-02-04T17:01:24.138Z,75.54
2023-02-04T17:03:58.075Z,75.83
2023-02-04T17:06:32.322Z,75.99
2023-02-04T17:09:03.997Z,76.24
2023-02-04T17:11:34.796Z,76.47
2023-02-04T17:14:09.907Z,76.04
2023-02-04T17:16:41.574Z,76.32
2023-02-04T17:19:11.845Z,76.40
2023-02-04T17:21:43.496Z,76.18
2023-02-04T17:24:13.712Z,76.66
2023-02-04T17:26:45.359Z,76.33
2023-02-04T17:29:17.255Z,76.79
2023-02-04T17:31:48.923Z,76.65
2023-02-04T17:34:19.249Z,77.04
2023-02-04T17:36:50.909Z,76.90
2023-02-04T17:39:21.042Z,77.15
2023-02-04T17:41:53.437Z,77.06
2023-02-04T17:44:27.471Z,77.07
2023-02-04T17:46:59.377Z,77.15
2023-02-04T17:49:31.205Z,77.19
2023-02-04T17:52:05.109Z,77.13
2023-02-04T17:54:36.954Z,77.17
2023-02-04T17:57:18.911Z,77.09
2023-02-04T17:59:51.488Z,77.00
2023-02-04T18:02:29.822Z,76.96
2023-02-04T18:05:06.952Z,76.78
2023-02-04T18:07:38.859Z,76.72
2023-02-04T18:10:22.361Z,76.62
2023-02-04T18:12:54.211Z,76.37
2023-02-04T18:15:31.141Z,76.21
2023-02-04T18:18:12.399Z,76.02
2023-02-04T18:20:44.087Z,75.99
2023-02-04T18:23:15.833Z,76.02
2023-02-04T18:25:49.412Z,75.91
2023-02-04T18:28:22.890Z,75.78
2023-02-04T18:31:00.108Z,75.90
2023-02-04T18:33:33.331Z,75.97
2023-02-04T18:36:05.306Z,76.05
2023-02-04T18:38:42.818Z,76.26
2023-02-04T18:41:33.816Z,76.46
2023-02-04T18:44:27.816Z,76.55
2023-02-04T18:47:00.846Z,76.50
2023-02-04T18:49:43.833Z,76.43
2023-02-04T18:52:21.198Z,76.34
2023-02-04T18:54:55.368Z,76.19
2023-02-04T18:57:37.321Z,76.05
2023-02-04T19:00:34.496Z,75.88
2023-02-04T19:03:20.414Z,75.86
2023-02-04T19:05:53.305Z,75.80
2023-02-04T19:08:27.897Z,75.76
2023-02-04T19:11:01.791Z,75.67
2023-02-04T19:13:42.478Z,75.61
2023-02-04T19:16:23.922Z,75.51
2023-02-04T19:18:57.710Z,75.46
2023-02-04T19:21:32.026Z,75.46
2023-02-04T19:24:20.353Z,75.38
2023-02-04T19:26:57.298Z,75.34
2023-02-04T19:29:44.118Z,75.32
2023-02-04T19:32:27.423Z,75.35
2023-02-04T19:35:12.743Z,75.37
2023-02-04T19:37:45.972Z,75.36
2023-02-04T19:40:35.680Z,75.31
2023-02-04T19:43:21.234Z,75.35
2023-02-04T19:45:53.490Z,75.36
2023-02-04T19:48:33.769Z,75.31
2023-02-04T19:51:19.068Z,75.32
2023-02-04T19:53:52.137Z,75.33
2023-02-04T19:56:33.435Z,75.26
2023-02-04T19:59:25.393Z,75.32
2023-02-04T20:01:59.535Z,75.33
2023-02-04T20:04:36.968Z,75.27
2023-02-04T20:07:19.607Z,75.15
2023-02-04T20:09:55.715Z,75.08
2023-02-04T20:12:29.700Z,75.20
2023-02-04T20:15:04.006Z,75.24
2023-02-04T20:17:42.359Z,75.29
2023-02-04T20:20:23.109Z,75.33
2023-02-04T20:22:56.931Z,75.40
2023-02-04T20:25:40.855Z,75.39
2023-02-04T20:28:35.619Z,75.35
2023-02-04T20:31:22.560Z,75.22
2023-02-04T20:33:56.564Z,75.03
2023-02-04T20:36:41.115Z,74.85
2023-02-04T20:39:41.893Z,74.89
2023-02-04T20:42:40.186Z,75.12
2023-02-04T20:45:22.699Z,75.28
2023-02-04T20:47:58.395Z,75.41
2023-02-04T20:50:42.264Z,75.46
2023-02-04T20:53:39.358Z,75.60
2023-02-04T20:56:24.203Z,75.73
2023-02-04T20:58:58.766Z,75.83
2023-02-04T21:01:35.683Z,75.95
2023-02-04T21:04:20.089Z,76.03
2023-02-04T21:06:53.432Z,76.00
2023-02-04T21:09:27.695Z,75.99
2023-02-04T21:12:00.620Z,75.95
2023-02-04T21:14:32.341Z,75.91
2023-02-04T21:17:03.068Z,75.87
2023-02-04T21:19:35.283Z,75.80
2023-02-04T21:22:07.022Z,75.62
2023-02-04T21:24:37.274Z,75.55
2023-02-04T21:27:08.958Z,75.55
2023-02-04T21:29:39.138Z,75.50
2023-02-04T21:32:10.780Z,75.45
2023-02-04T21:34:40.990Z,75.21
2023-02-04T21:37:12.720Z,74.99
2023-02-04T21:39:44.658Z,74.73
2023-02-04T21:42:16.264Z,74.59
2023-02-04T21:44:46.382Z,74.11
2023-02-04T21:47:18.174Z,73.92
2023-02-04T21:49:49.837Z,73.78
2023-02-04T21:52:19.989Z,73.66
2023-02-04T21:54:51.681Z,73.60
2023-02-04T21:57:21.839Z,73.52
2023-02-04T21:59:55.996Z,73.53
2023-02-04T22:02:27.933Z,73.30
2023-02-04T22:04:59.672Z,73.16
2023-02-04T22:07:31.293Z,73.01
2023-02-04T22:10:01.601Z,73.14
2023-02-04T22:12:33.376Z,73.20
2023-02-04T22:15:05.214Z,73.05
2023-02-04T22:17:36.955Z,73.08
2023-02-04T22:20:12.238Z,73.00
2023-02-04T22:22:44.398Z,73.14
2023-02-04T22:25:17.517Z,73.06
2023-02-04T22:27:49.639Z,72.94
2023-02-04T22:30:21.682Z,73.03
2023-02-04T22:32:53.305Z,72.93
2023-02-04T22:35:23.826Z,72.90
2023-02-04T22:37:55.470Z,72.94
2023-02-04T22:40:25.725Z,72.75
2023-02-04T22:42:57.485Z,72.87
2023-02-04T22:45:27.647Z,72.74
2023-02-04T22:47:59.297Z,72.80
2023-02-04T22:50:31.159Z,72.78
2023-02-04T22:53:01.363Z,72.74
2023-02-04T22:55:33.352Z,72.83
2023-02-04T22:58:05.174Z,72.91
2023-02-04T23:00:36.871Z,72.96
2023-02-04T23:03:08.656Z,72.92
2023-02-04T23:05:38.906Z,72.96
2023-02-04T23:08:10.594Z,73.08
2023-02-04T23:10:40.808Z,73.06
2023-02-04T23:13:13.658Z,73.18
2023-02-04T23:15:45.733Z,73.24
2023-02-04T23:18:17.363Z,73.34
2023-02-04T23:20:47.535Z,73.45
2023-02-04T23:23:19.226Z,73.46
2023-02-04T23:25:49.651Z,73.49
2023-02-04T23:28:21.260Z,73.51
2023-02-04T23:30:51.414Z,73.55
2023-02-04T23:33:23.252Z,73.59
2023-02-04T23:35:55.150Z,73.54
2023-02-04T23:38:26.836Z,73.47
2023-02-04T23:40:57.106Z,73.54
2023-02-04T23:43:28.897Z,73.59
2023-02-04T23:46:00.621Z,73.58
2023-02-04T23:48:32.391Z,73.65
2023-02-04T23:51:04.085Z,73.70
2023-02-04T23:53:34.216Z,73.81
2023-02-04T23:56:06.335Z,73.86
2023-02-04T23:58:38.017Z,73.88
